Time;durP1;ratioP1;P1;durP2;ratioP2;P2;SDS_P1;SDS_P2;PMS_P1;PMS_P2;Temp;Humidity;BMP_temperature;BMP_pressure;BME280_temperature;BME280_humidity;BME280_pressure;Samples;Min_cycle;Max_cycle;Signal;HPM_P1;HPM_P2
2023/01/21 00:02:17;;;;;;;3.20;1.65;;;7.40;71.00;;;;;;6245794;23;20071;-75
2023/01/21 00:04:43;;;;;;;4.25;1.60;;;7.40;70.90;;;;;;6244929;23;20011;-75
2023/01/21 00:07:09;;;;;;;3.85;1.23;;;7.40;70.90;;;;;;6218593;23;20253;-75
2023/01/21 00:09:34;;;;;;;3.30;1.42;;;7.40;70.50;;;;;;6244663;23;20091;-74
2023/01/21 00:12:03;;;;;;;4.72;1.50;;;7.40;70.60;;;;;;6217149;23;20008;-74
2023/01/21 00:14:29;;;;;;;3.00;1.33;;;7.40;72.10;;;;;;6245264;23;20020;-74
2023/01/21 00:16:55;;;;;;;2.67;1.30;;;7.40;70.40;;;;;;6245230;23;20031;-75
2023/01/21 00:19:20;;;;;;;3.88;1.40;;;7.40;70.40;;;;;;6218305;23;20039;-75
2023/01/21 00:21:46;;;;;;;4.60;1.60;;;7.40;70.10;;;;;;6245377;23;20000;-74
2023/01/21 00:24:12;;;;;;;4.55;1.45;;;7.40;70.00;;;;;;6245410;23;20130;-75
2023/01/21 00:26:37;;;;;;;5.15;1.85;;;7.40;69.90;;;;;;6245122;23;19996;-75
2023/01/21 00:29:03;;;;;;;2.22;1.30;;;7.40;70.10;;;;;;6245569;23;20307;-75
2023/01/21 00:31:29;;;;;;;3.97;1.50;;;7.40;69.80;;;;;;6245218;23;20016;-75
2023/01/21 00:33:54;;;;;;;4.18;1.98;;;7.40;69.50;;;;;;6245069;23;20001;-75
2023/01/21 00:36:23;;;;;;;6.32;1.50;;;7.40;69.40;;;;;;6245067;23;20326;-74
2023/01/21 00:38:49;;;;;;;4.32;1.52;;;7.40;69.20;;;;;;6244728;23;20020;-75
2023/01/21 00:41:15;;;;;;;5.30;1.77;;;7.50;69.20;;;;;;6244894;23;20307;-75
2023/01/21 00:43:41;;;;;;;4.88;1.30;;;7.50;69.30;;;;;;6244350;23;20095;-74
2023/01/21 00:46:07;;;;;;;4.45;1.70;;;7.50;68.90;;;;;;6244261;23;20008;-76
2023/01/21 00:48:34;;;;;;;4.40;1.60;;;7.50;68.70;;;;;;6244960;23;20431;-75
2023/01/21 00:50:59;;;;;;;4.32;1.92;;;7.50;69.20;;;;;;6244751;23;20004;-75
2023/01/21 00:53:26;;;;;;;5.53;1.30;;;7.50;69.10;;;;;;6244920;23;20032;-79
2023/01/21 00:55:52;;;;;;;3.78;1.67;;;7.50;68.40;;;;;;6244933;23;20347;-74
2023/01/21 00:58:18;;;;;;;2.63;1.40;;;7.50;68.80;;;;;;6244794;23;20008;-73
2023/01/21 01:00:43;;;;;;;3.30;1.27;;;7.50;68.60;;;;;;6217814;23;20008;-73
2023/01/21 01:03:09;;;;;;;3.08;1.60;;;7.50;68.60;;;;;;6245402;23;20450;-73
2023/01/21 01:05:36;;;;;;;5.43;1.70;;;7.50;68.50;;;;;;6244962;23;20071;-73
2023/01/21 01:08:02;;;;;;;5.07;1.50;;;7.50;68.70;;;;;;6242036;23;20026;-73
2023/01/21 01:10:28;;;;;;;5.22;1.40;;;7.50;68.10;;;;;;6244396;23;20331;-74
2023/01/21 01:12:53;;;;;;;5.65;1.70;;;7.50;68.20;;;;;;6244644;23;20008;-72
2023/01/21 01:15:19;;;;;;;4.97;1.45;;;7.50;68.20;;;;;;6244649;23;20006;-73
2023/01/21 01:17:45;;;;;;;4.40;1.63;;;7.50;68.40;;;;;;6244313;23;20414;-73
2023/01/21 01:20:10;;;;;;;3.97;1.50;;;7.50;68.00;;;;;;6244288;23;20004;-72
2023/01/21 01:22:36;;;;;;;4.53;1.38;;;7.50;68.00;;;;;;6244736;23;20028;-72
2023/01/21 01:25:02;;;;;;;7.05;1.30;;;7.50;67.80;;;;;;6244643;23;20004;-72
2023/01/21 01:27:29;;;;;;;3.35;1.30;;;7.50;68.30;;;;;;6245213;23;19996;-73
2023/01/21 01:29:55;;;;;;;7.32;1.48;;;7.50;67.50;;;;;;6244933;23;20004;-72
2023/01/21 01:32:21;;;;;;;5.47;1.73;;;7.50;67.40;;;;;;6244558;23;20180;-73
2023/01/21 01:34:46;;;;;;;2.63;1.27;;;7.50;67.60;;;;;;6244440;23;20075;-73
2023/01/21 01:37:12;;;;;;;4.28;1.52;;;7.50;67.80;;;;;;6244539;23;20451;-72
2023/01/21 01:39:37;;;;;;;3.65;1.40;;;7.50;67.60;;;;;;6190986;23;20474;-72
2023/01/21 01:42:03;;;;;;;4.00;1.77;;;7.50;67.40;;;;;;6214135;23;20080;-72
2023/01/21 01:44:47;;;;;;;2.70;1.35;;;7.40;67.00;;;;;;6214071;23;20000;-72
2023/01/21 01:47:14;;;;;;;3.80;1.20;;;7.40;67.00;;;;;;6215839;23;20043;-71
2023/01/21 01:49:41;;;;;;;3.15;1.20;;;7.40;66.60;;;;;;6215879;23;19997;-72
2023/01/21 01:52:10;;;;;;;5.97;1.60;;;7.40;66.80;;;;;;6216205;23;20068;-72
2023/01/21 01:54:39;;;;;;;4.25;1.20;;;7.40;66.70;;;;;;6216122;23;20072;-71
2023/01/21 01:57:09;;;;;;;4.82;1.38;;;7.40;66.80;;;;;;6216463;23;20007;-73
2023/01/21 01:59:35;;;;;;;4.88;1.50;;;7.40;67.20;;;;;;6215862;23;20079;-72
2023/01/21 02:02:07;;;;;;;7.72;1.50;;;7.40;66.90;;;;;;6216049;23;20007;-72
2023/01/21 02:04:43;;;;;;;4.30;1.40;;;7.40;66.80;;;;;;6216372;23;20042;-72
2023/01/21 02:07:10;;;;;;;4.25;1.42;;;7.40;68.90;;;;;;6216155;23;20039;-72
2023/01/21 02:09:36;;;;;;;3.88;1.40;;;7.40;67.00;;;;;;6215806;23;20080;-73
2023/01/21 02:12:03;;;;;;;4.50;1.25;;;7.40;67.00;;;;;;6216128;23;20000;-72
2023/01/21 02:14:31;;;;;;;5.75;1.38;;;7.40;66.70;;;;;;6216282;23;20004;-72
2023/01/21 02:17:03;;;;;;;6.05;1.70;;;7.40;66.50;;;;;;6215556;23;20380;-73
2023/01/21 02:19:59;;;;;;;3.67;1.58;;;7.40;66.60;;;;;;6215619;23;20012;-71
2023/01/21 02:22:40;;;;;;;4.95;1.40;;;7.40;66.70;;;;;;6215483;23;20001;-72
2023/01/21 02:25:23;;;;;;;4.40;1.38;;;7.30;67.80;;;;;;6215630;23;20108;-72
2023/01/21 02:28:28;;;;;;;4.75;1.95;;;7.30;67.80;;;;;;6215853;23;20008;-71
2023/01/21 02:31:12;;;;;;;6.03;1.73;;;7.40;67.70;;;;;;6215794;23;20395;-71
2023/01/21 02:33:59;;;;;;;6.10;2.03;;;7.40;65.60;;;;;;6215443;23;20005;-72
2023/01/21 02:36:54;;;;;;;7.22;1.80;;;7.40;67.20;;;;;;6188991;23;20047;-71
2023/01/21 02:39:28;;;;;;;2.75;1.10;;;7.30;67.20;;;;;;6237902;23;20028;-72
2023/01/21 02:42:11;;;;;;;4.80;1.65;;;7.30;67.40;;;;;;6245767;23;20004;-71
2023/01/21 02:44:38;;;;;;;5.32;1.35;;;7.30;67.10;;;;;;6218984;23;20430;-72
2023/01/21 02:47:09;;;;;;;5.80;1.30;;;7.30;65.40;;;;;;6246061;23;20054;-72
2023/01/21 02:49:41;;;;;;;4.82;1.48;;;7.30;65.30;;;;;;6245969;23;20327;-72
2023/01/21 02:52:06;;;;;;;4.18;1.42;;;7.30;65.20;;;;;;6245727;23;20457;-73
2023/01/21 02:54:38;;;;;;;6.90;1.52;;;7.30;65.70;;;;;;6245732;23;20086;-72
2023/01/21 02:57:17;;;;;;;4.35;1.40;;;7.30;65.00;;;;;;6245314;23;20039;-72
2023/01/21 02:59:48;;;;;;;6.43;1.40;;;7.30;64.90;;;;;;6245826;23;20035;-72
2023/01/21 03:02:31;;;;;;;5.53;1.42;;;7.30;64.90;;;;;;6245753;23;20129;-72
2023/01/21 03:04:57;;;;;;;5.60;1.30;;;7.30;66.30;;;;;;6245268;23;20027;-73
2023/01/21 03:07:32;;;;;;;4.30;1.40;;;7.30;64.60;;;;;;6245972;23;20003;-73
2023/01/21 03:10:25;;;;;;;3.83;1.40;;;7.30;65.50;;;;;;6245400;23;20008;-72
2023/01/21 03:13:13;;;;;;;8.13;1.55;;;7.30;64.50;;;;;;6240000;23;20040;-72
2023/01/21 03:18:44;;;;;;;5.20;1.33;;;7.30;65.80;;;;;;6245466;23;20024;-71
2023/01/21 03:21:15;;;;;;;6.93;1.40;;;7.30;64.20;;;;;;6245866;23;20437;-71
2023/01/21 03:23:45;;;;;;;9.95;1.70;;;7.30;63.90;;;;;;6245754;23;19996;-73
2023/01/21 03:26:15;;;;;;;6.60;1.88;;;7.30;64.20;;;;;;6245533;23;20058;-72
2023/01/21 03:28:44;;;;;;;6.10;1.83;;;7.30;63.80;;;;;;6245377;23;20008;-72
2023/01/21 03:31:33;;;;;;;6.07;1.98;;;7.30;63.80;;;;;;6245538;23;20058;-72
2023/01/21 03:34:02;;;;;;;5.28;1.50;;;7.20;63.60;;;;;;6245864;23;20004;-73
2023/01/21 03:36:47;;;;;;;2.85;1.30;;;7.30;63.60;;;;;;6245384;23;20004;-72
2023/01/21 03:39:53;;;;;;;4.38;1.50;;;7.30;63.60;;;;;;6245414;23;20016;-72
2023/01/21 03:42:19;;;;;;;3.03;1.55;;;7.20;63.40;;;;;;6200831;23;20438;-72
2023/01/21 03:44:45;;;;;;;3.47;1.42;;;7.20;63.50;;;;;;6245169;23;20100;-72
2023/01/21 03:47:30;;;;;;;5.55;1.70;;;7.20;63.60;;;;;;6245381;23;20046;-72
2023/01/21 03:50:03;;;;;;;2.83;1.23;;;7.20;64.60;;;;;;6245593;23;20496;-71
2023/01/21 03:52:29;;;;;;;4.93;1.60;;;7.20;63.60;;;;;;6245033;23;20019;-72
2023/01/21 03:54:55;;;;;;;3.65;1.60;;;7.20;63.70;;;;;;6245309;23;20544;-72
2023/01/21 03:57:21;;;;;;;6.88;1.50;;;7.20;63.30;;;;;;6245165;23;20007;-71
2023/01/21 03:59:47;;;;;;;2.88;1.42;;;7.20;63.20;;;;;;6245326;23;20314;-72
2023/01/21 04:02:18;;;;;;;7.40;1.98;;;7.20;63.10;;;;;;6218277;23;20012;-73
2023/01/21 04:04:43;;;;;;;8.70;3.05;;;7.20;63.40;;;;;;6245219;23;20012;-72
2023/01/21 04:07:09;;;;;;;2.95;1.50;;;7.20;63.50;;;;;;6244705;23;20012;-71
2023/01/21 04:09:35;;;;;;;5.43;1.90;;;7.20;63.40;;;;;;6217788;23;20094;-72
2023/01/21 04:12:00;;;;;;;3.83;1.50;;;7.20;63.50;;;;;;6245098;23;20054;-71
2023/01/21 04:14:26;;;;;;;5.80;1.58;;;7.20;63.40;;;;;;6244892;23;20222;-72
2023/01/21 04:16:52;;;;;;;6.25;1.40;;;7.20;63.50;;;;;;6245103;23;20394;-73
2023/01/21 04:19:17;;;;;;;3.15;1.45;;;7.20;63.50;;;;;;6245029;23;20371;-73
2023/01/21 04:21:43;;;;;;;4.82;1.70;;;7.20;63.30;;;;;;6245093;23;20000;-73
2023/01/21 04:24:09;;;;;;;3.78;1.33;;;7.20;63.50;;;;;;6244934;23;20024;-72
2023/01/21 04:26:34;;;;;;;4.40;1.77;;;7.20;63.90;;;;;;6244922;23;20000;-72
2023/01/21 04:29:00;;;;;;;3.47;1.45;;;7.10;63.70;;;;;;6245127;23;20010;-71
2023/01/21 04:31:26;;;;;;;4.90;1.60;;;7.20;64.00;;;;;;6244462;23;20308;-72
2023/01/21 04:33:51;;;;;;;5.28;1.58;;;7.10;63.60;;;;;;6217909;23;20430;-72
2023/01/21 04:36:17;;;;;;;3.95;1.42;;;7.10;63.60;;;;;;6218232;23;20453;-72
2023/01/21 04:38:43;;;;;;;5.57;1.45;;;7.10;63.70;;;;;;6263297;22;20020;-72
2023/01/21 04:41:08;;;;;;;4.07;1.60;;;7.10;63.70;;;;;;6275250;22;20366;-72
2023/01/21 04:43:34;;;;;;;4.85;1.80;;;7.10;63.80;;;;;;6275546;22;20078;-73
2023/01/21 04:46:00;;;;;;;5.50;1.75;;;7.10;64.10;;;;;;6275586;22;19999;-73
2023/01/21 04:48:25;;;;;;;3.28;1.38;;;7.00;64.20;;;;;;6275668;22;19996;-71
2023/01/21 04:50:51;;;;;;;2.30;1.33;;;7.00;64.40;;;;;;6276163;22;20008;-71
2023/01/21 04:53:16;;;;;;;2.83;1.50;;;7.00;64.60;;;;;;6276273;22;20004;-71
2023/01/21 04:55:42;;;;;;;3.22;1.33;;;6.90;64.80;;;;;;6248905;22;20007;-72
2023/01/21 04:58:08;;;;;;;4.38;1.58;;;6.90;64.90;;;;;;6274908;22;20004;-71
2023/01/21 05:00:33;;;;;;;5.20;1.58;;;6.90;65.20;;;;;;6274211;22;20464;-71
2023/01/21 05:02:59;;;;;;;3.58;1.52;;;6.90;65.40;;;;;;6275263;22;20000;-72
2023/01/21 05:05:25;;;;;;;3.22;1.30;;;6.90;65.40;;;;;;6275087;22;20004;-72
2023/01/21 05:07:54;;;;;;;4.70;2.00;;;6.80;65.60;;;;;;6275130;22;19995;-72
2023/01/21 05:10:20;;;;;;;4.72;1.77;;;6.80;65.80;;;;;;6274388;22;20048;-72
2023/01/21 05:12:47;;;;;;;2.63;1.42;;;6.80;65.60;;;;;;6275343;22;20436;-72
2023/01/21 05:15:12;;;;;;;4.25;1.58;;;6.80;65.70;;;;;;6275122;22;20008;-72
2023/01/21 05:17:38;;;;;;;5.55;1.50;;;6.80;65.70;;;;;;6275040;22;20074;-71
2023/01/21 05:20:05;;;;;;;5.10;1.90;;;6.80;65.60;;;;;;6274444;22;20011;-71
2023/01/21 05:22:30;;;;;;;5.35;2.00;;;6.80;66.10;;;;;;6247820;22;20008;-71
2023/01/21 05:24:58;;;;;;;3.55;1.60;;;6.90;65.40;;;;;;6275306;22;20303;-71
2023/01/21 05:27:24;;;;;;;6.45;1.70;;;6.90;65.00;;;;;;6275239;22;20008;-70
2023/01/21 05:29:49;;;;;;;4.30;1.60;;;6.90;64.90;;;;;;6275100;22;20031;-72
2023/01/21 05:32:15;;;;;;;4.00;1.70;;;6.90;64.70;;;;;;6275255;22;20000;-72
2023/01/21 05:34:40;;;;;;;4.63;1.58;;;6.90;65.40;;;;;;6274973;22;20082;-72
2023/01/21 05:37:06;;;;;;;3.35;1.75;;;7.00;64.80;;;;;;6275048;22;20441;-71
2023/01/21 05:39:32;;;;;;;4.25;1.60;;;6.90;64.60;;;;;;6274915;22;20118;-72
2023/01/21 05:41:57;;;;;;;6.30;1.85;;;6.90;64.70;;;;;;6274907;22;19999;-69
2023/01/21 05:44:23;;;;;;;3.47;1.40;;;6.90;64.80;;;;;;6275068;22;20071;-72
2023/01/21 05:46:49;;;;;;;3.20;1.50;;;6.90;64.30;;;;;;6275236;22;20053;-72
2023/01/21 05:49:14;;;;;;;6.25;1.88;;;6.90;64.30;;;;;;6275005;22;20027;-72
2023/01/21 05:51:40;;;;;;;5.63;1.80;;;6.90;64.50;;;;;;6274776;22;20002;-72
2023/01/21 05:54:06;;;;;;;4.60;1.48;;;6.90;64.30;;;;;;6275382;22;20015;-73
2023/01/21 05:56:31;;;;;;;3.28;1.52;;;6.90;64.10;;;;;;6274951;22;20000;-71
2023/01/21 05:58:57;;;;;;;5.05;1.50;;;7.00;64.50;;;;;;6274906;22;20016;-72
2023/01/21 06:01:22;;;;;;;4.72;1.80;;;7.00;64.20;;;;;;6274661;22;20003;-72
2023/01/21 06:03:48;;;;;;;5.15;1.63;;;7.00;64.00;;;;;;6274968;22;19999;-74
2023/01/21 06:06:14;;;;;;;3.72;1.65;;;6.90;64.10;;;;;;6274829;22;20004;-71
2023/01/21 06:08:39;;;;;;;4.63;1.42;;;6.90;64.00;;;;;;6247756;22;20337;-71
2023/01/21 06:11:05;;;;;;;3.20;1.40;;;6.90;64.00;;;;;;6274830;22;20007;-72
2023/01/21 06:13:31;;;;;;;5.90;1.70;;;6.90;64.20;;;;;;6274892;22;20071;-72
2023/01/21 06:15:56;;;;;;;6.32;2.25;;;6.90;64.30;;;;;;6274963;22;20287;-72
2023/01/21 06:18:23;;;;;;;6.20;1.63;;;6.90;64.30;;;;;;6274952;22;20065;-72
2023/01/21 06:20:49;;;;;;;4.60;1.88;;;6.90;63.80;;;;;;6274843;22;20408;-73
2023/01/21 06:23:15;;;;;;;4.15;1.70;;;6.90;63.90;;;;;;6275044;22;19996;-72
2023/01/21 06:25:42;;;;;;;5.82;2.13;;;6.90;64.10;;;;;;6274924;22;20054;-71
2023/01/21 06:28:11;;;;;;;4.20;1.80;;;6.90;64.00;;;;;;6274775;22;20204;-72
2023/01/21 06:30:37;;;;;;;5.80;2.00;;;6.90;65.70;;;;;;6275009;22;19999;-72
2023/01/21 06:33:03;;;;;;;4.10;1.50;;;6.90;64.40;;;;;;6276532;22;20007;-72
2023/01/21 06:35:29;;;;;;;3.63;1.70;;;6.90;64.60;;;;;;6276359;22;20003;-73
2023/01/21 06:37:55;;;;;;;5.07;1.45;;;6.80;64.40;;;;;;6276573;22;20016;-73
2023/01/21 06:40:20;;;;;;;4.38;1.80;;;6.80;64.40;;;;;;6276531;22;20014;-71
2023/01/21 06:42:47;;;;;;;4.38;1.92;;;6.90;64.60;;;;;;6276609;22;20004;-71
2023/01/21 06:45:14;;;;;;;5.65;1.80;;;6.90;64.30;;;;;;6249850;22;20045;-72
2023/01/21 06:47:44;;;;;;;4.25;1.80;;;6.90;64.00;;;;;;6276176;22;20000;-72
2023/01/21 06:50:11;;;;;;;4.95;1.65;;;6.90;64.10;;;;;;6276271;22;20004;-72
2023/01/21 06:52:38;;;;;;;5.57;1.67;;;6.90;64.10;;;;;;6277003;22;20030;-72
2023/01/21 06:55:04;;;;;;;4.53;1.90;;;6.90;64.20;;;;;;6276612;22;20018;-73
2023/01/21 06:57:30;;;;;;;6.43;1.70;;;6.90;64.70;;;;;;6276306;22;20034;-72
2023/01/21 06:59:56;;;;;;;3.92;1.58;;;6.90;64.20;;;;;;6276502;22;20039;-73
2023/01/21 07:02:21;;;;;;;5.15;1.80;;;6.80;64.30;;;;;;6276461;22;19996;-73
2023/01/21 07:04:49;;;;;;;7.47;1.98;;;6.80;64.10;;;;;;6276458;22;20456;-73
2023/01/21 07:07:15;;;;;;;4.97;1.85;;;6.80;63.90;;;;;;6248771;22;20008;-73
2023/01/21 07:09:40;;;;;;;5.63;1.88;;;6.80;64.30;;;;;;6275834;22;20071;-73
2023/01/21 07:12:06;;;;;;;7.50;2.05;;;6.80;64.30;;;;;;6276031;22;20007;-72
2023/01/21 07:14:32;;;;;;;4.80;1.90;;;6.80;64.30;;;;;;6276082;22;20031;-72
2023/01/21 07:16:58;;;;;;;6.35;2.30;;;6.80;64.00;;;;;;6276109;22;20008;-71
2023/01/21 07:19:23;;;;;;;7.28;1.83;;;6.90;64.20;;;;;;6275950;22;20008;-72
2023/01/21 07:21:49;;;;;;;4.93;1.80;;;6.90;64.10;;;;;;6276154;22;20379;-73
2023/01/21 07:24:15;;;;;;;5.90;1.80;;;6.90;64.20;;;;;;6276024;22;20539;-72
2023/01/21 07:26:40;;;;;;;3.13;1.65;;;6.90;64.10;;;;;;6276179;22;19996;-72
2023/01/21 07:29:06;;;;;;;6.57;1.58;;;6.90;65.00;;;;;;6276249;22;20007;-72
2023/01/21 07:31:33;;;;;;;5.63;1.80;;;6.90;64.40;;;;;;6276242;22;20433;-72
2023/01/21 07:33:59;;;;;;;8.23;1.88;;;6.90;63.90;;;;;;6276366;22;20503;-72
2023/01/21 07:36:25;;;;;;;5.50;2.05;;;7.00;64.30;;;;;;6276059;22;20064;-72
2023/01/21 07:38:51;;;;;;;6.82;2.10;;;7.00;64.00;;;;;;6275982;22;20022;-72
2023/01/21 07:41:17;;;;;;;9.13;2.05;;;7.00;64.20;;;;;;6276107;22;20034;-73
2023/01/21 07:43:42;;;;;;;5.03;2.10;;;7.00;64.00;;;;;;6275245;22;20070;-72
2023/01/21 07:46:08;;;;;;;7.57;2.00;;;7.00;64.30;;;;;;6275950;22;20027;-73
2023/01/21 07:48:34;;;;;;;6.45;1.92;;;7.10;64.10;;;;;;6275654;22;20353;-72
2023/01/21 07:51:00;;;;;;;7.20;1.95;;;7.10;63.80;;;;;;6275745;22;20004;-72
2023/01/21 07:53:26;;;;;;;7.10;1.80;;;7.10;63.60;;;;;;6275609;22;20007;-72
2023/01/21 07:55:52;;;;;;;5.75;1.83;;;7.20;64.20;;;;;;6275638;22;20334;-72
2023/01/21 07:58:17;;;;;;;5.43;1.90;;;7.20;63.60;;;;;;6275555;22;20008;-73
2023/01/21 08:00:43;;;;;;;8.68;2.20;;;7.30;63.50;;;;;;6275488;22;20027;-72
2023/01/21 08:03:09;;;;;;;6.28;2.30;;;7.30;63.40;;;;;;6276031;22;19996;-73
2023/01/21 08:05:35;;;;;;;5.50;1.80;;;7.30;63.20;;;;;;6248680;22;20068;-72
2023/01/21 08:08:00;;;;;;;8.07;2.00;;;7.30;63.20;;;;;;6275703;22;20031;-73
2023/01/21 08:10:26;;;;;;;5.30;2.08;;;7.40;63.00;;;;;;6248417;22;20016;-72
2023/01/21 08:12:51;;;;;;;7.68;1.90;;;7.40;62.80;;;;;;6276307;22;20004;-75
2023/01/21 08:15:17;;;;;;;3.35;1.95;;;7.50;63.00;;;;;;6276430;22;20360;-72
2023/01/21 08:17:45;;;;;;;4.40;1.98;;;7.60;62.60;;;;;;6276074;22;20026;-72
2023/01/21 08:20:11;;;;;;;4.07;1.80;;;7.60;62.70;;;;;;6275967;22;20302;-72
2023/01/21 08:22:37;;;;;;;4.18;1.92;;;7.70;62.40;;;;;;6275996;22;19995;-73
2023/01/21 08:25:04;;;;;;;5.22;2.22;;;7.70;62.40;;;;;;6275873;22;20082;-72
2023/01/21 08:27:30;;;;;;;4.55;1.70;;;7.80;62.40;;;;;;6275631;22;19995;-71
2023/01/21 08:29:56;;;;;;;6.45;2.33;;;7.90;62.50;;;;;;6275784;22;20010;-73
2023/01/21 08:32:22;;;;;;;4.85;2.08;;;8.00;62.10;;;;;;6275738;22;20008;-74
2023/01/21 08:34:49;;;;;;;5.82;1.80;;;8.00;62.00;;;;;;6275936;22;19996;-74
2023/01/21 08:37:15;;;;;;;6.47;2.42;;;8.10;61.90;;;;;;6275446;22;20004;-75
2023/01/21 08:39:40;;;;;;;7.50;1.70;;;8.10;61.40;;;;;;6275018;22;20103;-71
2023/01/21 08:42:06;;;;;;;4.35;2.00;;;8.10;61.50;;;;;;6275523;22;20083;-72
2023/01/21 08:44:34;;;;;;;6.57;2.13;;;8.20;61.40;;;;;;6248448;22;20011;-72
2023/01/21 08:47:00;;;;;;;6.38;2.38;;;8.20;61.40;;;;;;6275532;22;20008;-69
2023/01/21 08:49:25;;;;;;;5.13;1.70;;;8.20;61.30;;;;;;6275234;22;20110;-72
2023/01/21 08:51:51;;;;;;;3.40;1.90;;;8.30;61.20;;;;;;6275010;22;19995;-71
2023/01/21 08:54:17;;;;;;;7.60;2.10;;;8.30;61.10;;;;;;6275267;22;20003;-71
2023/01/21 08:56:42;;;;;;;5.28;2.53;;;8.40;61.40;;;;;;6274906;22;20067;-72
2023/01/21 08:59:09;;;;;;;5.22;1.90;;;8.50;61.00;;;;;;6274871;22;20085;-71
2023/01/21 09:01:39;;;;;;;4.70;1.73;;;8.50;60.90;;;;;;6275522;22;20022;-71
2023/01/21 09:04:05;;;;;;;3.80;1.60;;;8.40;60.80;;;;;;6275525;22;20039;-70
2023/01/21 09:06:31;;;;;;;4.05;2.00;;;8.30;60.70;;;;;;6274719;22;20129;-71
2023/01/21 09:08:57;;;;;;;7.95;2.03;;;8.40;61.00;;;;;;6273300;22;20432;-70
2023/01/21 09:11:23;;;;;;;5.97;2.10;;;8.30;60.70;;;;;;6273843;22;19999;-73
2023/01/21 09:13:49;;;;;;;5.65;1.90;;;8.30;60.60;;;;;;6275569;22;20481;-71
2023/01/21 09:16:20;;;;;;;7.20;1.90;;;8.40;60.50;;;;;;6275095;22;20129;-71
2023/01/21 09:18:49;;;;;;;5.18;1.88;;;8.40;60.40;;;;;;6247167;22;20026;-71
2023/01/21 09:21:15;;;;;;;5.97;1.83;;;8.40;60.70;;;;;;6274960;22;19995;-72
2023/01/21 09:23:41;;;;;;;5.07;2.10;;;8.40;60.80;;;;;;6274783;22;20421;-73
2023/01/21 09:26:14;;;;;;;5.13;2.08;;;8.50;60.50;;;;;;6274813;22;19995;-72
2023/01/21 09:28:41;;;;;;;4.35;2.00;;;8.60;61.00;;;;;;6275014;22;19996;-71
2023/01/21 09:31:13;;;;;;;7.70;2.20;;;8.60;60.60;;;;;;6274598;22;20003;-70
2023/01/21 09:33:41;;;;;;;4.57;2.22;;;8.70;61.00;;;;;;6274536;22;20000;-71
2023/01/21 09:36:11;;;;;;;5.28;2.03;;;8.60;60.60;;;;;;6275289;22;20374;-71
2023/01/21 09:38:37;;;;;;;5.80;2.10;;;8.70;60.80;;;;;;6274605;22;20517;-70
2023/01/21 09:41:24;;;;;;;5.50;2.25;;;8.70;60.60;;;;;;6247336;22;20042;-69
2023/01/21 09:44:00;;;;;;;6.82;2.00;;;8.70;60.30;;;;;;6187839;22;20015;-70
2023/01/21 09:46:44;;;;;;;6.68;2.20;;;8.70;60.80;;;;;;6274592;22;20003;-71
2023/01/21 09:49:26;;;;;;;4.57;1.80;;;8.70;60.60;;;;;;6274067;22;20039;-70
2023/01/21 09:52:02;;;;;;;5.78;2.22;;;8.80;60.00;;;;;;6275358;22;20006;-71
2023/01/21 09:54:32;;;;;;;4.20;1.70;;;8.80;59.90;;;;;;6274999;22;20437;-71
2023/01/21 09:57:13;;;;;;;5.70;1.98;;;8.90;60.00;;;;;;6274356;22;19996;-70
2023/01/21 10:00:14;;;;;;;5.40;1.77;;;8.90;59.20;;;;;;6274132;22;20329;-70
2023/01/21 10:02:49;;;;;;;4.63;2.00;;;8.90;59.50;;;;;;6274236;22;20007;-70
2023/01/21 10:05:23;;;;;;;5.22;2.00;;;8.90;59.90;;;;;;6274523;22;20442;-71
2023/01/21 10:08:16;;;;;;;5.20;1.85;;;9.00;59.90;;;;;;6275910;22;20000;-71
2023/01/21 10:11:19;;;;;;;5.05;1.80;;;9.10;59.50;;;;;;6254169;22;19999;-71
2023/01/21 10:14:09;;;;;;;6.70;2.28;;;9.20;59.40;;;;;;6276718;22;20003;-71
2023/01/21 10:16:47;;;;;;;6.10;2.00;;;9.20;59.30;;;;;;6276552;22;20012;-71
2023/01/21 10:19:19;;;;;;;5.82;2.17;;;9.20;59.30;;;;;;6249652;22;20019;-71
2023/01/21 10:21:52;;;;;;;5.60;2.30;;;9.20;59.20;;;;;;6276664;22;19999;-71
2023/01/21 10:24:24;;;;;;;4.77;2.20;;;9.20;60.40;;;;;;6276718;22;20003;-70
2023/01/21 10:26:52;;;;;;;4.90;1.98;;;9.10;59.50;;;;;;6277337;22;20609;-71
2023/01/21 10:29:21;;;;;;;7.00;1.92;;;9.00;59.10;;;;;;6276651;22;20003;-70
2023/01/21 10:31:58;;;;;;;5.22;1.80;;;9.00;59.20;;;;;;6277029;22;20004;-70
2023/01/21 10:34:28;;;;;;;4.45;1.95;;;8.90;59.00;;;;;;6249436;22;20011;-70
